Time;durP1;ratioP1;P1;durP2;ratioP2;P2;SDS_P1;SDS_P2;PMS_P1;PMS_P2;Temp;Humidity;BMP_temperature;BMP_pressure;BME280_temperature;BME280_humidity;BME280_pressure;Samples;Min_cycle;Max_cycle;Signal;HPM_P1;HPM_P2
2023/03/10 00:00:46;;;;;;;6.25;2.30;;;5.10;99.90;;;;;;4942941;28;20041;-34
2023/03/10 00:03:12;;;;;;;3.00;2.10;;;5.10;99.90;;;;;;4939692;28;20149;-32
2023/03/10 00:05:38;;;;;;;4.85;2.65;;;5.10;99.90;;;;;;4944362;28;20533;-33
2023/03/10 00:08:04;;;;;;;4.65;2.58;;;5.00;99.90;;;;;;4940795;28;20123;-32
2023/03/10 00:10:30;;;;;;;7.15;2.80;;;5.00;99.90;;;;;;4939107;28;20030;-31
2023/03/10 00:12:56;;;;;;;6.25;2.45;;;5.10;99.90;;;;;;4943938;28;20034;-33
2023/03/10 00:15:22;;;;;;;3.65;3.17;;;5.10;99.90;;;;;;4943918;28;20053;-35
2023/03/10 00:17:54;;;;;;;5.55;2.97;;;5.00;99.90;;;;;;4938596;28;20649;-32
2023/03/10 00:20:20;;;;;;;9.85;3.53;;;5.10;99.90;;;;;;4940785;28;20576;-35
2023/03/10 00:22:46;;;;;;;6.72;3.10;;;5.20;99.90;;;;;;4940465;28;20039;-33
2023/03/10 00:25:11;;;;;;;8.05;2.65;;;5.30;99.90;;;;;;4938587;28;20394;-33
2023/03/10 00:27:37;;;;;;;6.72;2.95;;;5.30;99.90;;;;;;4940738;28;20031;-33
2023/03/10 00:30:04;;;;;;;10.70;3.25;;;5.30;99.90;;;;;;4945747;28;20038;-32
2023/03/10 00:32:29;;;;;;;12.63;3.22;;;5.30;99.90;;;;;;4946130;28;20121;-33
2023/03/10 00:34:55;;;;;;;6.53;3.38;;;5.30;99.90;;;;;;4939148;28;20510;-35
2023/03/10 00:37:21;;;;;;;5.43;2.60;;;5.40;99.90;;;;;;4940090;28;20038;-34
2023/03/10 00:39:50;;;;;;;5.20;2.97;;;5.30;99.90;;;;;;4939203;28;20096;-33
2023/03/10 00:42:16;;;;;;;4.90;1.92;;;5.30;99.90;;;;;;4938746;28;20401;-34
2023/03/10 00:44:41;;;;;;;3.85;1.77;;;5.20;99.90;;;;;;4943157;28;20038;-32
2023/03/10 00:47:07;;;;;;;1.70;1.38;;;5.30;99.90;;;;;;4938999;28;20556;-31
2023/03/10 00:49:33;;;;;;;2.15;1.33;;;5.40;99.90;;;;;;4941673;28;20157;-32
2023/03/10 00:51:58;;;;;;;2.08;1.45;;;5.50;99.90;;;;;;4939613;28;20039;-34
2023/03/10 00:54:24;;;;;;;1.38;1.27;;;5.50;99.90;;;;;;4940513;28;20469;-35
2023/03/10 00:56:50;;;;;;;4.80;1.80;;;5.50;99.90;;;;;;4937503;28;20031;-34
2023/03/10 00:59:15;;;;;;;1.80;1.58;;;5.40;99.90;;;;;;4944848;28;20112;-33
2023/03/10 01:01:41;;;;;;;1.67;1.55;;;5.40;99.90;;;;;;4940200;28;20042;-33
2023/03/10 01:04:15;;;;;;;1.85;1.40;;;5.20;99.90;;;;;;4941392;28;20063;-33
2023/03/10 01:06:43;;;;;;;2.47;1.58;;;5.20;99.90;;;;;;4949200;28;20032;-32
2023/03/10 01:09:08;;;;;;;3.20;1.17;;;5.10;99.90;;;;;;4970514;28;20443;-34
2023/03/10 01:11:34;;;;;;;2.78;1.17;;;5.10;99.90;;;;;;4956910;28;20118;-32
2023/03/10 01:14:03;;;;;;;1.67;1.30;;;5.10;99.90;;;;;;4965114;28;20113;-35
2023/03/10 01:16:29;;;;;;;;;;;5.00;99.90;;;;;;4960136;28;20038;-35
2023/03/10 01:18:55;;;;;;;3.08;1.15;;;5.00;99.90;;;;;;4967408;28;19910;-35
2023/03/10 01:21:25;;;;;;;1.50;1.40;;;5.00;99.90;;;;;;4958497;28;20039;-33
2023/03/10 01:23:51;;;;;;;1.58;1.40;;;5.10;99.90;;;;;;4958682;28;20041;-32
2023/03/10 01:26:17;;;;;;;1.65;1.30;;;5.10;99.90;;;;;;4948608;28;20031;-36
2023/03/10 01:28:43;;;;;;;2.72;1.38;;;5.20;99.90;;;;;;4942350;28;20027;-32
2023/03/10 01:31:08;;;;;;;1.67;1.58;;;5.20;99.90;;;;;;4937986;28;20039;-33
2023/03/10 01:33:35;;;;;;;3.78;1.90;;;5.20;99.90;;;;;;4940422;28;20043;-33
2023/03/10 01:36:05;;;;;;;1.58;1.30;;;5.20;99.90;;;;;;4938830;28;20551;-34
2023/03/10 01:38:31;;;;;;;2.40;1.60;;;5.10;99.90;;;;;;4948270;28;20027;-33
2023/03/10 01:40:57;;;;;;;1.80;1.70;;;5.00;99.90;;;;;;4947936;28;20501;-33
2023/03/10 01:43:30;;;;;;;3.97;1.55;;;4.90;99.90;;;;;;4937528;28;20046;-33
2023/03/10 01:46:20;;;;;;;2.22;1.63;;;4.90;99.90;;;;;;4940148;28;20034;-33
2023/03/10 01:48:46;;;;;;;2.70;1.70;;;5.00;99.90;;;;;;4945155;28;20560;-32
2023/03/10 01:51:11;;;;;;;4.13;1.92;;;4.90;99.90;;;;;;4938388;28;20121;-33
2023/03/10 01:53:38;;;;;;;1.58;1.48;;;4.80;99.90;;;;;;4937145;28;20037;-32
2023/03/10 01:56:05;;;;;;;2.67;1.58;;;4.80;99.90;;;;;;4937314;28;20035;-31
2023/03/10 01:58:37;;;;;;;2.85;1.60;;;4.80;99.90;;;;;;4941008;28;20200;-32
2023/03/10 02:01:03;;;;;;;1.90;1.80;;;4.70;99.90;;;;;;4969233;28;20523;-39
2023/03/10 02:03:35;;;;;;;2.83;1.67;;;4.80;99.90;;;;;;4942130;28;20046;-40
2023/03/10 02:06:07;;;;;;;2.70;1.33;;;4.80;99.90;;;;;;4939607;28;20114;-40
2023/03/10 02:08:37;;;;;;;2.25;1.65;;;4.90;99.90;;;;;;4937441;28;20031;-40
2023/03/10 02:11:04;;;;;;;2.53;1.55;;;4.80;99.90;;;;;;4938124;28;20054;-40
2023/03/10 02:13:29;;;;;;;2.63;1.98;;;4.80;99.90;;;;;;4943729;28;20028;-40
2023/03/10 02:15:55;;;;;;;2.70;1.70;;;4.80;99.90;;;;;;4958067;28;20035;-40
2023/03/10 02:18:22;;;;;;;1.65;1.55;;;4.90;99.90;;;;;;4966414;28;20027;-40
2023/03/10 02:21:14;;;;;;;2.42;1.70;;;4.90;99.90;;;;;;4960782;28;20485;-40
2023/03/10 02:24:04;;;;;;;2.70;2.03;;;4.90;99.90;;;;;;4974795;28;20103;-40
2023/03/10 02:27:02;;;;;;;1.65;1.55;;;4.90;99.90;;;;;;4958050;28;20071;-40
2023/03/10 02:29:49;;;;;;;3.20;1.95;;;5.00;99.90;;;;;;4957829;28;20035;-40
2023/03/10 02:32:16;;;;;;;4.45;1.92;;;5.10;99.90;;;;;;4966041;28;20035;-40
2023/03/10 02:34:42;;;;;;;2.50;2.17;;;5.10;99.90;;;;;;4959089;28;20481;-40
2023/03/10 02:37:18;;;;;;;1.52;1.42;;;5.20;99.90;;;;;;4959051;28;20034;-40
2023/03/10 02:39:44;;;;;;;2.00;1.67;;;5.20;99.90;;;;;;4964136;28;20406;-40
2023/03/10 02:42:10;;;;;;;4.15;1.95;;;5.20;99.90;;;;;;4958936;28;20035;-40
2023/03/10 02:44:38;;;;;;;1.70;1.60;;;5.30;99.90;;;;;;4968234;28;20057;-40
2023/03/10 02:50:28;;;;;;;3.10;1.67;;;5.30;99.90;;;;;;4724279;28;20061;-40
2023/03/10 02:53:05;;;;;;;1.55;1.45;;;5.20;99.90;;;;;;4964212;28;20031;-40
2023/03/10 02:55:31;;;;;;;1.80;1.70;;;5.00;99.90;;;;;;4948402;28;20039;-40
2023/03/10 02:57:56;;;;;;;1.50;1.40;;;5.00;99.90;;;;;;4968482;28;20033;-40
2023/03/10 03:00:22;;;;;;;2.70;1.30;;;5.00;99.90;;;;;;4958097;28;20114;-40
2023/03/10 03:02:48;;;;;;;1.40;1.17;;;5.00;99.90;;;;;;4992026;28;20401;-40
2023/03/10 03:05:13;;;;;;;2.45;1.55;;;5.00;99.90;;;;;;4959711;28;20031;-40
2023/03/10 03:07:39;;;;;;;1.40;1.30;;;4.90;99.90;;;;;;4968419;28;20041;-40
2023/03/10 03:10:05;;;;;;;1.45;1.35;;;4.80;99.90;;;;;;4954247;28;20031;-40
2023/03/10 03:12:31;;;;;;;2.35;1.80;;;4.60;99.90;;;;;;4965231;28;20111;-40
2023/03/10 03:14:56;;;;;;;1.23;1.13;;;4.70;99.90;;;;;;4962573;28;20105;-40
2023/03/10 03:17:22;;;;;;;2.15;1.88;;;4.70;99.90;;;;;;4964544;28;20026;-40
2023/03/10 03:19:47;;;;;;;2.67;1.70;;;4.80;99.90;;;;;;4960094;28;20039;-40
2023/03/10 03:22:13;;;;;;;3.08;1.80;;;4.90;99.90;;;;;;4966671;28;20047;-40
2023/03/10 03:24:38;;;;;;;2.55;1.42;;;4.90;99.90;;;;;;4962600;28;20034;-40
2023/03/10 03:27:04;;;;;;;2.53;1.52;;;5.00;99.90;;;;;;4977901;28;20036;-40
2023/03/10 03:29:30;;;;;;;3.58;1.45;;;5.10;99.90;;;;;;4965181;28;20030;-41
2023/03/10 03:31:57;;;;;;;3.38;1.70;;;5.10;99.90;;;;;;4963221;28;20035;-40
2023/03/10 03:34:23;;;;;;;2.53;1.92;;;5.10;99.90;;;;;;4968473;28;20019;-40
2023/03/10 03:36:48;;;;;;;1.48;1.38;;;5.10;99.90;;;;;;4980331;28;20038;-40
2023/03/10 03:39:16;;;;;;;2.90;1.67;;;5.10;99.90;;;;;;4958479;28;20022;-40
2023/03/10 03:41:42;;;;;;;1.40;1.40;;;5.20;99.90;;;;;;4966142;28;20203;-40
2023/03/10 03:44:08;;;;;;;2.30;1.63;;;5.30;99.90;;;;;;4967923;28;20070;-40
2023/03/10 03:46:34;;;;;;;2.60;1.55;;;5.40;99.90;;;;;;4962528;28;20031;-40
2023/03/10 03:49:00;;;;;;;4.50;1.85;;;5.50;99.90;;;;;;4964807;28;20027;-40
2023/03/10 03:51:26;;;;;;;2.08;1.42;;;5.60;99.90;;;;;;4963551;28;20074;-40
2023/03/10 03:53:51;;;;;;;7.45;1.65;;;5.80;99.90;;;;;;4966011;28;20114;-40
2023/03/10 03:56:17;;;;;;;2.22;1.50;;;5.90;99.90;;;;;;4960532;28;20552;-40
2023/03/10 03:58:42;;;;;;;4.32;1.65;;;6.00;99.90;;;;;;4957751;28;20038;-41
2023/03/10 04:01:08;;;;;;;3.00;1.15;;;6.00;99.90;;;;;;4966114;28;20560;-40
2023/03/10 04:03:34;;;;;;;1.00;1.00;;;6.10;99.90;;;;;;4960950;28;20035;-40
2023/03/10 04:06:00;;;;;;;1.40;1.30;;;6.50;99.90;;;;;;4971569;28;20065;-40
2023/03/10 04:08:26;;;;;;;1.95;1.20;;;6.50;99.90;;;;;;4966734;28;20449;-41
2023/03/10 04:10:53;;;;;;;2.70;1.40;;;6.60;99.90;;;;;;4964526;28;20054;-40
2023/03/10 04:13:19;;;;;;;1.10;1.00;;;6.80;99.90;;;;;;4958213;28;20397;-40
2023/03/10 04:15:45;;;;;;;1.38;1.08;;;7.00;99.90;;;;;;4948367;28;20038;-40
2023/03/10 04:18:10;;;;;;;1.70;0.80;;;7.20;99.90;;;;;;4946064;28;20058;-40
2023/03/10 04:20:36;;;;;;;3.38;1.20;;;7.50;99.90;;;;;;4945062;28;20540;-40
2023/03/10 04:23:03;;;;;;;1.42;1.20;;;8.00;99.90;;;;;;4938503;28;20093;-40
2023/03/10 04:25:28;;;;;;;3.05;1.27;;;8.30;99.90;;;;;;4941540;28;20042;-40
2023/03/10 04:27:55;;;;;;;2.58;1.23;;;8.50;99.90;;;;;;4940953;28;20181;-40
2023/03/10 04:30:22;;;;;;;2.42;0.80;;;8.40;99.90;;;;;;4940818;28;20073;-40
2023/03/10 04:32:48;;;;;;;0.80;0.80;;;8.40;99.90;;;;;;4943341;28;20039;-40
2023/03/10 04:35:14;;;;;;;0.88;0.88;;;8.50;99.90;;;;;;4950685;28;20030;-40
2023/03/10 04:37:40;;;;;;;0.80;0.80;;;8.50;99.90;;;;;;4944874;28;20073;-40
2023/03/10 04:40:08;;;;;;;0.70;0.70;;;8.50;99.90;;;;;;4942693;28;20117;-40
2023/03/10 04:42:34;;;;;;;0.75;0.75;;;8.40;99.90;;;;;;4943643;28;20039;-41
2023/03/10 04:45:00;;;;;;;0.90;0.82;;;8.50;99.90;;;;;;4947273;28;20520;-40
2023/03/10 04:47:25;;;;;;;0.98;0.90;;;8.60;99.90;;;;;;4940354;28;20034;-40
2023/03/10 04:49:51;;;;;;;0.90;0.90;;;8.60;99.90;;;;;;4939671;28;20586;-42
2023/03/10 04:52:17;;;;;;;0.70;0.70;;;8.60;99.90;;;;;;4953486;28;20453;-40
2023/03/10 04:54:42;;;;;;;2.40;0.73;;;8.60;99.90;;;;;;4957784;28;20031;-40
2023/03/10 04:57:08;;;;;;;0.70;0.70;;;8.50;99.90;;;;;;4961561;28;20065;-40
2023/03/10 04:59:34;;;;;;;0.70;0.65;;;8.50;99.90;;;;;;4965351;28;20121;-40
2023/03/10 05:01:59;;;;;;;3.35;1.52;;;8.40;99.90;;;;;;4974314;28;20043;-39
2023/03/10 05:04:25;;;;;;;0.60;0.60;;;8.30;99.90;;;;;;4963532;28;20499;-40
2023/03/10 05:06:51;;;;;;;1.17;0.90;;;8.30;99.90;;;;;;4960731;28;20039;-40
2023/03/10 05:09:17;;;;;;;0.43;0.43;;;8.20;99.90;;;;;;4963065;28;20031;-40
2023/03/10 05:11:43;;;;;;;0.60;0.60;;;8.20;99.90;;;;;;4963621;28;20054;-40
2023/03/10 05:14:11;;;;;;;0.63;0.63;;;8.10;99.90;;;;;;4962931;28;20031;-41
2023/03/10 05:16:36;;;;;;;0.50;0.50;;;8.20;99.90;;;;;;4963713;28;20063;-40
2023/03/10 05:19:02;;;;;;;0.50;0.50;;;8.10;99.90;;;;;;4959597;28;20059;-40
2023/03/10 05:21:28;;;;;;;0.93;0.50;;;8.20;99.90;;;;;;4957722;28;20042;-40
2023/03/10 05:23:53;;;;;;;0.50;0.50;;;8.10;99.90;;;;;;4976700;28;20382;-40
2023/03/10 05:26:19;;;;;;;0.55;0.55;;;8.20;99.90;;;;;;4960582;28;20039;-40
2023/03/10 05:28:45;;;;;;;0.50;0.50;;;8.20;99.90;;;;;;4960494;28;20111;-39
2023/03/10 05:31:15;;;;;;;0.77;0.60;;;8.10;99.90;;;;;;4969483;28;20492;-40
2023/03/10 05:33:42;;;;;;;0.47;0.47;;;8.10;99.90;;;;;;4963189;28;20027;-40
2023/03/10 05:36:10;;;;;;;0.68;0.68;;;8.00;99.90;;;;;;4956245;28;20477;-40
2023/03/10 05:38:36;;;;;;;0.50;0.50;;;8.10;99.90;;;;;;4958929;28;20027;-40
2023/03/10 05:41:06;;;;;;;0.60;0.60;;;8.10;99.90;;;;;;4950101;28;20051;-40
2023/03/10 05:43:31;;;;;;;0.60;0.60;;;8.00;99.90;;;;;;4943544;28;20473;-41
2023/03/10 05:45:58;;;;;;;0.50;0.50;;;8.00;99.90;;;;;;4946431;28;20031;-40
2023/03/10 05:48:24;;;;;;;1.02;0.63;;;8.00;99.90;;;;;;4967225;28;20798;-40
2023/03/10 05:51:16;;;;;;;0.68;0.68;;;8.00;99.90;;;;;;4958891;28;20050;-40
2023/03/10 05:53:42;;;;;;;0.80;0.80;;;7.90;99.90;;;;;;4962075;28;20062;-39
2023/03/10 05:56:10;;;;;;;0.60;0.60;;;7.80;99.90;;;;;;4959268;28;20042;-40
2023/03/10 05:58:36;;;;;;;0.60;0.60;;;7.80;99.90;;;;;;4966488;28;20064;-39
2023/03/10 06:01:02;;;;;;;0.70;0.70;;;7.80;99.90;;;;;;4945221;28;20036;-39
2023/03/10 06:03:28;;;;;;;0.70;0.70;;;7.80;99.90;;;;;;4941536;28;20051;-39
2023/03/10 06:05:55;;;;;;;0.80;0.80;;;7.80;99.90;;;;;;4942097;28;20404;-39
2023/03/10 06:08:22;;;;;;;0.90;0.80;;;7.80;99.90;;;;;;4939104;28;20034;-40
2023/03/10 06:10:48;;;;;;;1.52;0.77;;;7.80;99.90;;;;;;4943138;28;20199;-40
2023/03/10 06:13:13;;;;;;;2.25;0.70;;;7.80;99.90;;;;;;4937573;28;20118;-39
2023/03/10 06:15:39;;;;;;;1.95;1.00;;;7.80;99.90;;;;;;4937209;28;20038;-39
2023/03/10 06:18:05;;;;;;;0.65;0.65;;;7.80;99.90;;;;;;4936927;28;20030;-40
2023/03/10 06:20:30;;;;;;;0.90;0.90;;;7.80;99.90;;;;;;4949269;28;20030;-39
2023/03/10 06:22:56;;;;;;;0.80;0.80;;;7.80;99.90;;;;;;4969006;28;20043;-40
2023/03/10 06:25:21;;;;;;;1.02;0.90;;;7.80;99.90;;;;;;4968393;28;20024;-38
2023/03/10 06:27:47;;;;;;;0.80;0.80;;;7.80;99.90;;;;;;4964213;28;20018;-39
2023/03/10 06:30:14;;;;;;;0.60;0.60;;;7.80;99.90;;;;;;4963977;28;20032;-38
2023/03/10 06:32:39;;;;;;;1.38;0.80;;;7.80;99.90;;;;;;4961264;28;20126;-39
2023/03/10 06:35:05;;;;;;;0.70;0.70;;;7.90;99.90;;;;;;4965615;28;20268;-39
2023/03/10 06:37:31;;;;;;;1.95;1.00;;;7.90;99.90;;;;;;4962109;28;20058;-39
2023/03/10 06:39:57;;;;;;;0.60;0.60;;;7.90;99.90;;;;;;4964551;28;20544;-39
2023/03/10 06:42:22;;;;;;;0.60;0.60;;;7.90;99.90;;;;;;4967478;28;20039;-40
2023/03/10 06:44:48;;;;;;;0.68;0.68;;;7.90;99.90;;;;;;4969543;28;20030;-39
2023/03/10 06:47:14;;;;;;;0.55;0.55;;;7.90;99.90;;;;;;4962418;28;20378;-39
2023/03/10 06:49:39;;;;;;;0.80;0.80;;;7.90;99.90;;;;;;4964748;28;21346;-39
2023/03/10 06:52:05;;;;;;;0.65;0.65;;;8.00;99.90;;;;;;4966551;28;20117;-40
2023/03/10 06:54:31;;;;;;;1.25;0.90;;;8.00;99.90;;;;;;4973573;28;20503;-40
2023/03/10 06:56:56;;;;;;;1.17;0.80;;;8.00;99.90;;;;;;4960729;28;20124;-40
2023/03/10 06:59:22;;;;;;;3.20;0.93;;;8.00;99.90;;;;;;4962534;28;20058;-39
2023/03/10 07:01:47;;;;;;;0.90;0.90;;;8.10;99.90;;;;;;4964049;28;20081;-40
2023/03/10 07:04:13;;;;;;;1.00;0.90;;;8.10;99.90;;;;;;4964528;28;20039;-40
2023/03/10 07:06:38;;;;;;;1.02;0.95;;;8.10;99.90;;;;;;4959870;28;20035;-39
2023/03/10 07:09:05;;;;;;;1.25;0.90;;;8.20;99.90;;;;;;4960924;28;20038;-39
2023/03/10 07:11:31;;;;;;;2.63;1.30;;;8.20;99.90;;;;;;4962588;28;20029;-39
2023/03/10 07:13:56;;;;;;;1.52;0.80;;;8.20;99.90;;;;;;4967250;28;20061;-39
2023/03/10 07:16:22;;;;;;;1.60;1.10;;;8.30;99.90;;;;;;4959932;28;20058;-39
2023/03/10 07:18:48;;;;;;;1.52;0.90;;;8.30;99.90;;;;;;4960687;28;20309;-39
2023/03/10 07:21:16;;;;;;;1.10;1.10;;;8.30;99.90;;;;;;4964627;28;20049;-40
2023/03/10 07:23:43;;;;;;;1.75;1.05;;;8.40;99.90;;;;;;4961070;28;20027;-40
2023/03/10 07:26:09;;;;;;;0.75;0.75;;;8.40;99.90;;;;;;4966014;28;20061;-39
2023/03/10 07:28:38;;;;;;;0.80;0.80;;;8.50;99.90;;;;;;4968667;28;20451;-40
2023/03/10 07:31:08;;;;;;;0.70;0.70;;;8.60;99.90;;;;;;4961848;28;20031;-40
2023/03/10 07:33:34;;;;;;;1.00;1.00;;;8.60;99.90;;;;;;4967751;28;20031;-39
2023/03/10 07:36:09;;;;;;;0.90;0.90;;;8.70;99.90;;;;;;4964093;28;20532;-39
2023/03/10 07:38:35;;;;;;;1.02;1.00;;;8.70;99.90;;;;;;4970232;28;20130;-40
2023/03/10 07:41:15;;;;;;;0.80;0.80;;;8.80;99.90;;;;;;4966124;28;20102;-39
2023/03/10 07:43:41;;;;;;;1.00;0.80;;;8.80;99.90;;;;;;4976619;28;20038;-40
2023/03/10 07:46:08;;;;;;;1.17;1.10;;;8.90;99.90;;;;;;4958766;28;20040;-40
2023/03/10 07:48:34;;;;;;;0.90;0.90;;;8.90;99.90;;;;;;4976181;28;20026;-39
2023/03/10 07:51:00;;;;;;;1.00;0.73;;;9.00;99.90;;;;;;4963267;28;20046;-40
2023/03/10 07:53:26;;;;;;;2.50;1.27;;;9.10;99.90;;;;;;4965009;28;20069;-40
2023/03/10 07:55:52;;;;;;;1.20;1.00;;;9.10;99.90;;;;;;4960612;28;20030;-39
2023/03/10 07:58:18;;;;;;;3.50;0.95;;;9.30;99.90;;;;;;4964248;28;20401;-39
2023/03/10 08:00:44;;;;;;;2.38;0.80;;;9.30;99.90;;;;;;4964258;28;20729;-40
2023/03/10 08:03:10;;;;;;;2.40;1.00;;;9.40;99.90;;;;;;4959559;28;20520;-39
2023/03/10 08:05:41;;;;;;;1.27;0.90;;;9.50;99.90;;;;;;4966873;28;20065;-40
2023/03/10 08:08:07;;;;;;;0.70;0.70;;;9.50;99.90;;;;;;4971975;28;20036;-40
2023/03/10 08:10:33;;;;;;;0.85;0.85;;;9.50;99.90;;;;;;4962784;28;20065;-39
2023/03/10 08:12:58;;;;;;;2.15;1.00;;;9.60;99.90;;;;;;4960919;28;20798;-40
2023/03/10 08:15:25;;;;;;;1.73;1.10;;;9.70;99.90;;;;;;4967388;28;20061;-39
2023/03/10 08:17:51;;;;;;;1.25;0.73;;;9.70;99.90;;;;;;4964676;28;20123;-40
2023/03/10 08:20:16;;;;;;;1.80;0.98;;;9.80;99.90;;;;;;4963609;28;20039;-40
2023/03/10 08:22:42;;;;;;;0.80;0.80;;;9.80;99.90;;;;;;4961539;28;20039;-40
2023/03/10 08:25:08;;;;;;;1.17;0.80;;;9.80;99.90;;;;;;4963770;28;20034;-40
2023/03/10 08:27:34;;;;;;;0.68;0.68;;;9.90;99.90;;;;;;4963659;28;20034;-40
2023/03/10 08:30:00;;;;;;;0.90;0.90;;;9.90;99.90;;;;;;4961311;28;20031;-39
2023/03/10 08:32:25;;;;;;;1.15;0.70;;;10.00;99.90;;;;;;4968706;28;20031;-40
2023/03/10 08:34:51;;;;;;;1.25;0.85;;;10.10;99.90;;;;;;4962529;28;20039;-39
2023/03/10 08:37:16;;;;;;;0.52;0.52;;;10.30;99.90;;;;;;4962429;28;20030;-40
2023/03/10 08:39:42;;;;;;;1.25;0.70;;;10.70;99.90;;;;;;4963815;28;20043;-40
2023/03/10 08:42:11;;;;;;;1.10;0.80;;;11.00;99.90;;;;;;4965639;28;20041;-40
2023/03/10 08:44:37;;;;;;;1.33;0.82;;;11.20;99.90;;;;;;4959135;28;20023;-40
2023/03/10 08:47:03;;;;;;;0.77;0.75;;;11.40;99.90;;;;;;4961119;28;20042;-39
2023/03/10 08:49:29;;;;;;;2.83;0.70;;;11.40;99.90;;;;;;4966812;28;20043;-41
2023/03/10 08:51:54;;;;;;;2.20;0.70;;;11.50;99.90;;;;;;4960121;28;20031;-40
2023/03/10 08:54:21;;;;;;;1.00;0.70;;;11.60;99.90;;;;;;4965077;28;20136;-40
2023/03/10 08:56:48;;;;;;;0.80;0.80;;;11.80;99.90;;;;;;4962520;28;20054;-40
2023/03/10 08:59:13;;;;;;;1.05;0.95;;;11.70;99.90;;;;;;4959078;28;20389;-40
2023/03/10 09:01:39;;;;;;;1.10;0.70;;;11.30;99.90;;;;;;4963741;28;20038;-40
2023/03/10 09:04:07;;;;;;;1.77;0.57;;;11.00;99.90;;;;;;4960145;28;20038;-40
2023/03/10 09:06:34;;;;;;;0.50;0.50;;;10.90;99.90;;;;;;4960788;28;20432;-41
2023/03/10 09:08:59;;;;;;;0.75;0.75;;;10.80;99.90;;;;;;4958331;28;20046;-40
2023/03/10 09:11:28;;;;;;;0.75;0.70;;;10.70;99.90;;;;;;4947380;28;20039;-40
2023/03/10 09:13:54;;;;;;;0.68;0.68;;;10.60;99.90;;;;;;4936061;28;20114;-41
2023/03/10 09:16:20;;;;;;;0.85;0.85;;;10.40;99.90;;;;;;4945022;28;20037;-40
2023/03/10 09:18:46;;;;;;;0.68;0.40;;;10.20;99.90;;;;;;4964657;28;20041;-41
2023/03/10 09:21:15;;;;;;;0.30;0.30;;;9.80;99.90;;;;;;4960761;28;20078;-38
2023/03/10 09:23:42;;;;;;;0.50;0.50;;;9.60;99.90;;;;;;4946091;28;20388;-40
2023/03/10 09:26:09;;;;;;;0.85;0.38;;;9.50;99.90;;;;;;4967684;28;20547;-40
2023/03/10 09:28:34;;;;;;;0.30;0.30;;;9.40;99.90;;;;;;4963790;28;20038;-40
2023/03/10 09:31:02;;;;;;;0.63;0.50;;;9.40;99.90;;;;;;4966863;28;20034;-40
2023/03/10 09:33:28;;;;;;;0.30;0.30;;;9.40;99.90;;;;;;4965806;28;20039;-41
2023/03/10 09:35:56;;;;;;;1.85;0.40;;;9.50;99.90;;;;;;4969008;28;20035;-41
2023/03/10 09:38:22;;;;;;;0.50;0.50;;;9.50;99.90;;;;;;4969540;28;20030;-40
2023/03/10 09:41:04;;;;;;;0.30;0.30;;;9.50;99.90;;;;;;4964640;28;20117;-41
2023/03/10 09:43:38;;;;;;;0.85;0.40;;;9.50;99.90;;;;;;4960119;28;20085;-40
2023/03/10 09:47:00;;;;;;;0.32;0.32;;;9.50;99.90;;;;;;4964170;28;20046;-40
2023/03/10 09:49:34;;;;;;;0.32;0.32;;;9.50;99.90;;;;;;4963508;28;20143;-40
2023/03/10 09:52:14;;;;;;;0.40;0.40;;;9.50;99.90;;;;;;4961321;28;20026;-41
2023/03/10 09:54:55;;;;;;;0.30;0.30;;;9.60;99.90;;;;;;4962714;28;20547;-41
2023/03/10 09:57:22;;;;;;;0.30;0.30;;;9.60;99.90;;;;;;4961012;28;20074;-41
2023/03/10 09:59:51;;;;;;;0.55;0.30;;;9.60;99.90;;;;;;4970015;28;20104;-40
2023/03/10 10:02:23;;;;;;;0.63;0.40;;;9.60;99.90;;;;;;4968192;28;20046;-40
2023/03/10 10:04:54;;;;;;;0.47;0.40;;;9.50;99.90;;;;;;4971591;28;20268;-40
2023/03/10 10:07:23;;;;;;;0.77;0.40;;;9.40;99.90;;;;;;4970765;28;20031;-41
2023/03/10 10:09:57;;;;;;;0.35;0.35;;;9.20;99.90;;;;;;4963994;28;20370;-41
2023/03/10 10:12:25;;;;;;;0.57;0.50;;;8.90;99.90;;;;;;4964666;28;20400;-41
2023/03/10 10:15:14;;;;;;;0.45;0.30;;;8.70;99.90;;;;;;4965222;28;20027;-41
2023/03/10 10:18:00;;;;;;;0.63;0.50;;;8.70;99.90;;;;;;4972687;28;20023;-41
2023/03/10 10:20:57;;;;;;;1.55;0.60;;;8.70;99.90;;;;;;4978221;28;20041;-41
2023/03/10 10:23:37;;;;;;;0.47;0.47;;;8.70;99.90;;;;;;4966042;28;20031;-41
2023/03/10 10:26:13;;;;;;;0.63;0.50;;;8.70;99.90;;;;;;4969551;28;20031;-41
2023/03/10 10:28:50;;;;;;;0.43;0.43;;;8.70;99.90;;;;;;4967423;28;20022;-41
2023/03/10 10:31:19;;;;;;;0.38;0.38;;;8.80;99.90;;;;;;4964115;28;20114;-39
2023/03/10 10:33:55;;;;;;;0.45;0.40;;;8.80;99.90;;;;;;4975252;28;20173;-39
2023/03/10 10:36:28;;;;;;;0.35;0.30;;;8.90;99.90;;;;;;4973220;28;20077;-39
2023/03/10 10:38:55;;;;;;;2.17;0.38;;;9.00;99.90;;;;;;4968677;28;20405;-39
2023/03/10 10:41:29;;;;;;;0.40;0.40;;;9.20;99.90;;;;;;4972168;28;20031;-39
2023/03/10 10:44:05;;;;;;;0.80;0.55;;;9.40;99.90;;;;;;4964652;28;20035;-39
2023/03/10 10:46:31;;;;;;;2.67;0.65;;;9.60;99.90;;;;;;4967061;28;20030;-40
2023/03/10 10:49:06;;;;;;;1.13;0.40;;;9.80;99.90;;;;;;4973088;28;20023;-39
2023/03/10 10:51:34;;;;;;;0.40;0.40;;;10.00;99.90;;;;;;4962509;28;20077;-39
2023/03/10 10:54:21;;;;;;;0.43;0.43;;;10.10;99.90;;;;;;4968436;28;20034;-39
2023/03/10 10:56:58;;;;;;;0.40;0.40;;;10.20;99.90;;;;;;4964094;28;20551;-39
2023/03/10 10:59:32;;;;;;;1.10;0.57;;;10.20;99.90;;;;;;4967183;28;20098;-38
2023/03/10 11:01:59;;;;;;;2.00;0.50;;;10.30;99.90;;;;;;4962867;28;20469;-39
2023/03/10 11:04:27;;;;;;;2.95;0.73;;;10.70;99.90;;;;;;4970919;28;20041;-38
2023/03/10 11:07:09;;;;;;;1.17;0.70;;;10.80;99.90;;;;;;4982208;28;20488;-38
2023/03/10 11:09:35;;;;;;;0.40;0.40;;;10.80;99.90;;;;;;4967879;28;20041;-39
2023/03/10 11:12:26;;;;;;;1.92;0.60;;;10.60;99.90;;;;;;4961896;28;20022;-39
2023/03/10 11:15:10;;;;;;;1.80;0.73;;;10.70;99.90;;;;;;4966157;28;20027;-39
2023/03/10 11:18:17;;;;;;;1.88;0.40;;;10.60;99.90;;;;;;4968238;28;20065;-39
2023/03/10 11:21:12;;;;;;;0.75;0.50;;;10.50;99.90;;;;;;4970484;28;20509;-39
2023/03/10 11:24:16;;;;;;;0.47;0.47;;;10.50;99.90;;;;;;4966136;28;20039;-39
2023/03/10 11:27:00;;;;;;;1.65;0.77;;;10.50;99.90;;;;;;4973436;28;20035;-39
2023/03/10 11:29:51;;;;;;;0.60;0.60;;;10.50;99.90;;;;;;4966471;28;20063;-39
2023/03/10 11:32:32;;;;;;;0.60;0.40;;;10.70;99.90;;;;;;4962849;28;20092;-39
2023/03/10 11:35:00;;;;;;;1.23;0.60;;;10.80;99.90;;;;;;4968134;28;20038;-40
2023/03/10 11:38:01;;;;;;;0.85;0.57;;;10.90;99.90;;;;;;4965024;28;20081;-39
2023/03/10 11:40:34;;;;;;;0.77;0.55;;;10.90;99.90;;;;;;4968072;28;20039;-39
2023/03/10 11:43:42;;;;;;;1.98;0.55;;;10.80;99.90;;;;;;4972006;28;20033;-40
2023/03/10 11:46:24;;;;;;;0.98;0.55;;;10.90;99.90;;;;;;4969988;28;20141;-39
2023/03/10 11:49:06;;;;;;;0.30;0.30;;;11.00;99.90;;;;;;4965472;28;20085;-39
2023/03/10 11:51:38;;;;;;;0.40;0.40;;;11.00;99.90;;;;;;4965579;28;20480;-39
2023/03/10 11:54:12;;;;;;;0.40;0.40;;;11.10;99.90;;;;;;4969778;28;20026;-40
2023/03/10 11:56:39;;;;;;;0.40;0.40;;;11.20;99.90;;;;;;4962860;28;20619;-39
2023/03/10 11:59:56;;;;;;;0.40;0.40;;;11.30;99.90;;;;;;4966589;28;20126;-39
2023/03/10 12:02:28;;;;;;;2.28;1.20;;;11.20;99.90;;;;;;4961067;28;20077;-40
2023/03/10 12:05:07;;;;;;;0.95;0.50;;;11.10;99.90;;;;;;4949870;28;20063;-38
2023/03/10 12:07:34;;;;;;;;;;;11.10;99.90;;;;;;4962309;28;20089;-38
2023/03/10 12:10:13;;;;;;;2.67;0.70;;;11.20;99.90;;;;;;4958787;28;20297;-39
2023/03/10 12:12:45;;;;;;;1.38;0.60;;;11.10;99.90;;;;;;4964828;28;20059;-39
2023/03/10 12:15:11;;;;;;;0.50;0.50;;;11.20;99.90;;;;;;4963260;28;20129;-39
2023/03/10 12:17:38;;;;;;;0.50;0.50;;;11.10;99.90;;;;;;4967526;28;20039;-39
2023/03/10 12:20:12;;;;;;;0.90;0.82;;;11.00;99.90;;;;;;4958795;28;20035;-39
2023/03/10 12:22:40;;;;;;;0.30;0.30;;;11.00;99.90;;;;;;4961144;28;20042;-39
2023/03/10 12:25:28;;;;;;;0.50;0.50;;;11.00;99.90;;;;;;4957288;28;20035;-39
2023/03/10 12:28:27;;;;;;;0.40;0.40;;;11.20;99.90;;;;;;4963460;28;20031;-39
2023/03/10 12:31:10;;;;;;;0.88;0.55;;;11.30;99.90;;;;;;4984484;28;20576;-39
2023/03/10 12:33:40;;;;;;;0.50;0.50;;;11.40;99.90;;;;;;4962631;28;20026;-39
2023/03/10 12:36:23;;;;;;;0.75;0.40;;;11.50;99.90;;;;;;4960826;28;20361;-40
2023/03/10 12:38:59;;;;;;;1.40;0.57;;;11.40;99.90;;;;;;4965703;28;20053;-40
2023/03/10 12:41:25;;;;;;;0.70;0.52;;;11.50;99.90;;;;;;4964962;28;20047;-38
2023/03/10 12:43:58;;;;;;;0.50;0.50;;;11.40;99.90;;;;;;4963817;28;20039;-40
2023/03/10 12:46:37;;;;;;;0.85;0.57;;;11.40;99.90;;;;;;4960169;28;20054;-39
2023/03/10 12:49:13;;;;;;;;;;;11.40;99.90;;;;;;4995966;28;20066;-39
2023/03/10 12:51:45;;;;;;;1.00;0.55;;;11.40;99.90;;;;;;4966965;28;19928;-39
2023/03/10 12:54:19;;;;;;;0.38;0.38;;;11.30;99.90;;;;;;4962253;28;20058;-39
2023/03/10 12:57:10;;;;;;;0.60;0.60;;;11.30;99.90;;;;;;4959538;28;21918;-39
2023/03/10 12:59:50;;;;;;;1.00;0.60;;;11.40;99.90;;;;;;4966373;28;20066;-39
2023/03/10 13:02:25;;;;;;;0.60;0.60;;;11.10;99.90;;;;;;4960580;28;20042;-39
2023/03/10 13:04:57;;;;;;;0.43;0.43;;;11.00;99.90;;;;;;4964376;28;20034;-39
2023/03/10 13:07:23;;;;;;;0.40;0.40;;;11.00;99.90;;;;;;4962911;28;20470;-39
2023/03/10 13:09:50;;;;;;;0.40;0.40;;;11.00;99.90;;;;;;4995390;28;20273;-39
2023/03/10 13:12:25;;;;;;;0.50;0.50;;;11.10;99.90;;;;;;4965652;28;20396;-39